sensor_id;sensor_type;location;lat;lon;timestamp;temperature;humidity
25138;DHT22;13112;50.986;4.354;2022-09-01T00:01:40;19.90;99.90
25138;DHT22;13112;50.986;4.354;2022-09-01T00:04:08;19.90;99.90
25138;DHT22;13112;50.986;4.354;2022-09-01T00:06:35;19.90;99.90
25138;DHT22;13112;50.986;4.354;2022-09-01T00:09:04;19.90;99.90
25138;DHT22;13112;50.986;4.354;2022-09-01T00:11:31;19.80;99.90
25138;DHT22;13112;50.986;4.354;2022-09-01T00:13:58;19.80;99.90
25138;DHT22;13112;50.986;4.354;2022-09-01T00:16:26;19.80;99.90
25138;DHT22;13112;50.986;4.354;2022-09-01T00:18:53;19.70;99.90
25138;DHT22;13112;50.986;4.354;2022-09-01T00:21:30;19.80;99.90
25138;DHT22;13112;50.986;4.354;2022-09-01T00:23:57;19.80;99.90
25138;DHT22;13112;50.986;4.354;2022-09-01T00:26:23;19.70;99.90
25138;DHT22;13112;50.986;4.354;2022-09-01T00:28:49;19.60;99.90
25138;DHT22;13112;50.986;4.354;2022-09-01T00:31:16;19.60;99.90
25138;DHT22;13112;50.986;4.354;2022-09-01T00:33:43;19.60;99.90
25138;DHT22;13112;50.986;4.354;2022-09-01T00:36:09;19.60;99.90
25138;DHT22;13112;50.986;4.354;2022-09-01T00:38:35;19.50;99.90
25138;DHT22;13112;50.986;4.354;2022-09-01T00:41:01;19.50;99.90
25138;DHT22;13112;50.986;4.354;2022-09-01T00:43:47;19.40;99.90
25138;DHT22;13112;50.986;4.354;2022-09-01T00:46:17;19.40;99.90
25138;DHT22;13112;50.986;4.354;2022-09-01T00:48:43;19.40;99.90
25138;DHT22;13112;50.986;4.354;2022-09-01T00:51:11;19.40;99.90
25138;DHT22;13112;50.986;4.354;2022-09-01T00:53:39;19.40;99.90
25138;DHT22;13112;50.986;4.354;2022-09-01T00:56:06;19.30;99.90
25138;DHT22;13112;50.986;4.354;2022-09-01T00:58:33;19.20;99.90
25138;DHT22;13112;50.986;4.354;2022-09-01T01:01:00;19.20;99.90
25138;DHT22;13112;50.986;4.354;2022-09-01T01:03:27;19.20;99.90
25138;DHT22;13112;50.986;4.354;2022-09-01T01:05:57;19.20;99.90
25138;DHT22;13112;50.986;4.354;2022-09-01T01:08:29;19.20;99.90
25138;DHT22;13112;50.986;4.354;2022-09-01T01:11:08;19.10;99.90
25138;DHT22;13112;50.986;4.354;2022-09-01T01:14:00;19.00;99.90
25138;DHT22;13112;50.986;4.354;2022-09-01T01:16:30;19.00;99.90
25138;DHT22;13112;50.986;4.354;2022-09-01T01:18:56;19.00;99.90
25138;DHT22;13112;50.986;4.354;2022-09-01T01:21:42;18.90;99.90
25138;DHT22;13112;50.986;4.354;2022-09-01T01:24:30;18.80;99.90
25138;DHT22;13112;50.986;4.354;2022-09-01T01:26:56;18.80;99.90
25138;DHT22;13112;50.986;4.354;2022-09-01T01:29:34;18.70;99.90
25138;DHT22;13112;50.986;4.354;2022-09-01T01:32:04;18.70;99.90
25138;DHT22;13112;50.986;4.354;2022-09-01T01:34:38;18.70;99.90
25138;DHT22;13112;50.986;4.354;2022-09-01T01:37:10;18.80;99.90
25138;DHT22;13112;50.986;4.354;2022-09-01T01:39:39;18.70;99.90
25138;DHT22;13112;50.986;4.354;2022-09-01T01:42:07;18.70;99.90
25138;DHT22;13112;50.986;4.354;2022-09-01T01:44:35;18.70;99.90
25138;DHT22;13112;50.986;4.354;2022-09-01T01:47:04;18.80;99.90
25138;DHT22;13112;50.986;4.354;2022-09-01T01:49:34;18.70;99.90
25138;DHT22;13112;50.986;4.354;2022-09-01T01:52:00;18.80;99.90
25138;DHT22;13112;50.986;4.354;2022-09-01T01:54:27;18.80;99.90
25138;DHT22;13112;50.986;4.354;2022-09-01T01:56:57;18.90;99.90
25138;DHT22;13112;50.986;4.354;2022-09-01T01:59:23;18.90;99.90
25138;DHT22;13112;50.986;4.354;2022-09-01T02:01:51;18.90;99.90
25138;DHT22;13112;50.986;4.354;2022-09-01T02:04:18;18.90;99.90
25138;DHT22;13112;50.986;4.354;2022-09-01T02:06:45;19.00;99.90
25138;DHT22;13112;50.986;4.354;2022-09-01T02:09:14;19.00;99.90
25138;DHT22;13112;50.986;4.354;2022-09-01T02:11:41;19.00;99.90
25138;DHT22;13112;50.986;4.354;2022-09-01T02:14:07;19.10;99.90
25138;DHT22;13112;50.986;4.354;2022-09-01T02:16:34;19.10;99.90
25138;DHT22;13112;50.986;4.354;2022-09-01T02:19:02;19.10;99.90
25138;DHT22;13112;50.986;4.354;2022-09-01T02:21:28;19.10;99.90
25138;DHT22;13112;50.986;4.354;2022-09-01T02:24:03;19.20;99.90
25138;DHT22;13112;50.986;4.354;2022-09-01T02:26:36;19.10;99.80
25138;DHT22;13112;50.986;4.354;2022-09-01T02:29:05;19.00;99.70
25138;DHT22;13112;50.986;4.354;2022-09-01T02:31:35;19.00;99.60
25138;DHT22;13112;50.986;4.354;2022-09-01T02:34:07;19.00;99.60
25138;DHT22;13112;50.986;4.354;2022-09-01T02:36:36;19.00;99.70
25138;DHT22;13112;50.986;4.354;2022-09-01T02:39:09;19.00;99.90
25138;DHT22;13112;50.986;4.354;2022-09-01T02:41:34;19.00;99.90
25138;DHT22;13112;50.986;4.354;2022-09-01T02:44:02;19.00;99.70
25138;DHT22;13112;50.986;4.354;2022-09-01T02:46:29;19.00;99.60
25138;DHT22;13112;50.986;4.354;2022-09-01T02:48:54;19.00;99.50
25138;DHT22;13112;50.986;4.354;2022-09-01T02:51:23;19.10;99.50
25138;DHT22;13112;50.986;4.354;2022-09-01T02:53:50;19.00;99.40
25138;DHT22;13112;50.986;4.354;2022-09-01T02:56:19;19.00;99.50
25138;DHT22;13112;50.986;4.354;2022-09-01T02:58:47;19.00;99.40
25138;DHT22;13112;50.986;4.354;2022-09-01T03:03:50;19.00;99.40
25138;DHT22;13112;50.986;4.354;2022-09-01T03:06:17;18.90;99.60
25138;DHT22;13112;50.986;4.354;2022-09-01T03:08:44;18.90;99.50
25138;DHT22;13112;50.986;4.354;2022-09-01T03:11:10;18.80;99.60
25138;DHT22;13112;50.986;4.354;2022-09-01T03:13:40;18.70;99.70
25138;DHT22;13112;50.986;4.354;2022-09-01T03:16:06;18.70;99.80
25138;DHT22;13112;50.986;4.354;2022-09-01T03:18:33;18.70;99.70
25138;DHT22;13112;50.986;4.354;2022-09-01T03:20:59;18.60;99.90
25138;DHT22;13112;50.986;4.354;2022-09-01T03:23:27;18.50;99.90
25138;DHT22;13112;50.986;4.354;2022-09-01T03:25:53;18.50;99.90
25138;DHT22;13112;50.986;4.354;2022-09-01T03:28:19;18.40;99.90
25138;DHT22;13112;50.986;4.354;2022-09-01T03:30:48;18.30;99.90
25138;DHT22;13112;50.986;4.354;2022-09-01T03:33:15;18.30;99.90
25138;DHT22;13112;50.986;4.354;2022-09-01T03:35:42;18.30;99.90
25138;DHT22;13112;50.986;4.354;2022-09-01T03:38:08;18.30;99.90
25138;DHT22;13112;50.986;4.354;2022-09-01T03:40:37;18.30;99.90
25138;DHT22;13112;50.986;4.354;2022-09-01T03:43:06;18.30;99.90
25138;DHT22;13112;50.986;4.354;2022-09-01T03:45:34;18.40;99.90
25138;DHT22;13112;50.986;4.354;2022-09-01T03:48:06;18.30;99.90
25138;DHT22;13112;50.986;4.354;2022-09-01T03:50:35;18.30;99.90
25138;DHT22;13112;50.986;4.354;2022-09-01T03:53:06;18.20;99.90
25138;DHT22;13112;50.986;4.354;2022-09-01T03:55:33;18.10;99.90
25138;DHT22;13112;50.986;4.354;2022-09-01T03:58:02;18.10;99.90
25138;DHT22;13112;50.986;4.354;2022-09-01T04:00:34;17.90;99.90
25138;DHT22;13112;50.986;4.354;2022-09-01T04:03:02;17.80;99.90
25138;DHT22;13112;50.986;4.354;2022-09-01T04:05:30;17.80;99.90
25138;DHT22;13112;50.986;4.354;2022-09-01T04:08:01;17.70;99.90
25138;DHT22;13112;50.986;4.354;2022-09-01T04:10:29;17.60;99.90
25138;DHT22;13112;50.986;4.354;2022-09-01T04:13:03;17.50;99.90
25138;DHT22;13112;50.986;4.354;2022-09-01T04:15:30;17.40;99.90
25138;DHT22;13112;50.986;4.354;2022-09-01T04:17:58;17.40;99.90
25138;DHT22;13112;50.986;4.354;2022-09-01T04:20:46;17.30;99.90
25138;DHT22;13112;50.986;4.354;2022-09-01T04:23:26;17.20;99.90
25138;DHT22;13112;50.986;4.354;2022-09-01T04:26:06;17.20;99.90
25138;DHT22;13112;50.986;4.354;2022-09-01T04:28:46;17.10;99.90
25138;DHT22;13112;50.986;4.354;2022-09-01T04:31:20;17.10;99.90
25138;DHT22;13112;50.986;4.354;2022-09-01T04:33:48;17.10;99.90
25138;DHT22;13112;50.986;4.354;2022-09-01T04:38:51;17.10;99.90
25138;DHT22;13112;50.986;4.354;2022-09-01T04:41:25;17.10;99.90
25138;DHT22;13112;50.986;4.354;2022-09-01T04:43:53;17.10;99.90
25138;DHT22;13112;50.986;4.354;2022-09-01T04:46:24;17.10;99.90
25138;DHT22;13112;50.986;4.354;2022-09-01T04:48:54;17.00;99.90
25138;DHT22;13112;50.986;4.354;2022-09-01T04:51:20;16.90;99.90
25138;DHT22;13112;50.986;4.354;2022-09-01T04:53:46;16.90;99.90
25138;DHT22;13112;50.986;4.354;2022-09-01T04:56:17;16.90;99.90
25138;DHT22;13112;50.986;4.354;2022-09-01T04:58:47;16.90;99.90
25138;DHT22;13112;50.986;4.354;2022-09-01T05:01:19;16.90;99.90
25138;DHT22;13112;50.986;4.354;2022-09-01T05:03:46;16.90;99.90
25138;DHT22;13112;50.986;4.354;2022-09-01T05:06:17;16.80;99.90
25138;DHT22;13112;50.986;4.354;2022-09-01T05:08:43;16.80;99.90
25138;DHT22;13112;50.986;4.354;2022-09-01T05:11:13;16.80;99.90
25138;DHT22;13112;50.986;4.354;2022-09-01T05:13:46;16.80;99.90
25138;DHT22;13112;50.986;4.354;2022-09-01T05:16:14;16.80;99.90
25138;DHT22;13112;50.986;4.354;2022-09-01T05:18:42;16.70;99.90
25138;DHT22;13112;50.986;4.354;2022-09-01T05:21:19;16.70;99.90
25138;DHT22;13112;50.986;4.354;2022-09-01T05:23:49;16.70;99.90
25138;DHT22;13112;50.986;4.354;2022-09-01T05:26:18;16.70;99.90
25138;DHT22;13112;50.986;4.354;2022-09-01T05:28:45;16.60;99.90
25138;DHT22;13112;50.986;4.354;2022-09-01T05:31:11;16.60;99.90
25138;DHT22;13112;50.986;4.354;2022-09-01T05:33:38;16.60;99.90
25138;DHT22;13112;50.986;4.354;2022-09-01T05:36:11;16.70;99.90
25138;DHT22;13112;50.986;4.354;2022-09-01T05:38:37;16.70;99.90
25138;DHT22;13112;50.986;4.354;2022-09-01T05:41:05;16.70;99.90
25138;DHT22;13112;50.986;4.354;2022-09-01T05:43:33;16.70;99.90
25138;DHT22;13112;50.986;4.354;2022-09-01T05:46:01;16.70;99.90
25138;DHT22;13112;50.986;4.354;2022-09-01T05:48:30;16.70;99.90
25138;DHT22;13112;50.986;4.354;2022-09-01T05:50:57;16.70;99.90
25138;DHT22;13112;50.986;4.354;2022-09-01T05:53:26;16.70;99.90
25138;DHT22;13112;50.986;4.354;2022-09-01T05:55:55;16.70;99.90
25138;DHT22;13112;50.986;4.354;2022-09-01T05:58:26;16.80;99.90
25138;DHT22;13112;50.986;4.354;2022-09-01T06:00:53;16.80;99.90
25138;DHT22;13112;50.986;4.354;2022-09-01T06:03:21;16.80;99.90
25138;DHT22;13112;50.986;4.354;2022-09-01T06:05:49;16.80;99.90
25138;DHT22;13112;50.986;4.354;2022-09-01T06:08:20;17.00;99.90
25138;DHT22;13112;50.986;4.354;2022-09-01T06:10:46;17.10;99.90
25138;DHT22;13112;50.986;4.354;2022-09-01T06:13:13;17.10;99.90
25138;DHT22;13112;50.986;4.354;2022-09-01T06:15:40;17.10;99.90
25138;DHT22;13112;50.986;4.354;2022-09-01T06:18:10;17.00;99.90
25138;DHT22;13112;50.986;4.354;2022-09-01T06:20:40;17.20;99.90
25138;DHT22;13112;50.986;4.354;2022-09-01T06:23:08;17.40;99.90
25138;DHT22;13112;50.986;4.354;2022-09-01T06:25:37;17.60;99.90
25138;DHT22;13112;50.986;4.354;2022-09-01T06:28:04;17.50;99.90
25138;DHT22;13112;50.986;4.354;2022-09-01T06:30:30;17.30;99.90
25138;DHT22;13112;50.986;4.354;2022-09-01T06:33:01;17.40;99.90
25138;DHT22;13112;50.986;4.354;2022-09-01T06:35:30;17.60;99.90
25138;DHT22;13112;50.986;4.354;2022-09-01T06:37:57;17.60;99.90
25138;DHT22;13112;50.986;4.354;2022-09-01T06:40:23;17.40;99.90
25138;DHT22;13112;50.986;4.354;2022-09-01T06:42:51;17.30;99.90
25138;DHT22;13112;50.986;4.354;2022-09-01T06:45:19;17.40;99.90
25138;DHT22;13112;50.986;4.354;2022-09-01T06:47:46;17.60;99.90
25138;DHT22;13112;50.986;4.354;2022-09-01T06:50:14;17.60;99.90
25138;DHT22;13112;50.986;4.354;2022-09-01T06:52:41;17.70;99.90
25138;DHT22;13112;50.986;4.354;2022-09-01T06:55:09;17.60;99.90
25138;DHT22;13112;50.986;4.354;2022-09-01T06:57:35;17.90;99.90
25138;DHT22;13112;50.986;4.354;2022-09-01T07:00:07;18.00;99.90
25138;DHT22;13112;50.986;4.354;2022-09-01T07:02:35;18.00;99.90
25138;DHT22;13112;50.986;4.354;2022-09-01T07:05:04;17.90;99.90
25138;DHT22;13112;50.986;4.354;2022-09-01T07:07:32;18.30;99.90
25138;DHT22;13112;50.986;4.354;2022-09-01T07:09:58;18.90;99.90
25138;DHT22;13112;50.986;4.354;2022-09-01T07:12:24;19.80;99.90
25138;DHT22;13112;50.986;4.354;2022-09-01T07:14:50;19.70;99.90
25138;DHT22;13112;50.986;4.354;2022-09-01T07:17:17;20.50;99.90
25138;DHT22;13112;50.986;4.354;2022-09-01T07:19:43;21.10;99.90
25138;DHT22;13112;50.986;4.354;2022-09-01T07:22:09;22.30;99.90
25138;DHT22;13112;50.986;4.354;2022-09-01T07:24:35;22.90;99.20
25138;DHT22;13112;50.986;4.354;2022-09-01T07:27:01;23.10;97.90
25138;DHT22;13112;50.986;4.354;2022-09-01T07:29:26;22.60;98.50
25138;DHT22;13112;50.986;4.354;2022-09-01T07:31:52;22.10;99.40
25138;DHT22;13112;50.986;4.354;2022-09-01T07:34:20;23.20;98.40
25138;DHT22;13112;50.986;4.354;2022-09-01T07:36:46;23.60;97.00
25138;DHT22;13112;50.986;4.354;2022-09-01T07:39:12;23.90;96.70
25138;DHT22;13112;50.986;4.354;2022-09-01T07:41:39;24.60;95.30
25138;DHT22;13112;50.986;4.354;2022-09-01T07:44:08;25.30;94.30
25138;DHT22;13112;50.986;4.354;2022-09-01T07:46:36;26.20;93.00
25138;DHT22;13112;50.986;4.354;2022-09-01T07:49:02;26.60;92.20
25138;DHT22;13112;50.986;4.354;2022-09-01T07:51:29;27.80;90.90
25138;DHT22;13112;50.986;4.354;2022-09-01T07:53:57;28.20;90.10
25138;DHT22;13112;50.986;4.354;2022-09-01T07:56:23;29.00;88.50
25138;DHT22;13112;50.986;4.354;2022-09-01T07:58:50;28.70;86.40
25138;DHT22;13112;50.986;4.354;2022-09-01T08:01:26;28.20;87.20
25138;DHT22;13112;50.986;4.354;2022-09-01T08:03:55;28.20;86.20
25138;DHT22;13112;50.986;4.354;2022-09-01T08:06:23;28.90;85.70
25138;DHT22;13112;50.986;4.354;2022-09-01T08:08:52;29.10;85.10
25138;DHT22;13112;50.986;4.354;2022-09-01T08:11:24;29.20;83.40
25138;DHT22;13112;50.986;4.354;2022-09-01T08:13:52;27.00;87.80
25138;DHT22;13112;50.986;4.354;2022-09-01T08:16:18;27.00;88.80
25138;DHT22;13112;50.986;4.354;2022-09-01T08:18:45;27.40;87.90
25138;DHT22;13112;50.986;4.354;2022-09-01T08:21:12;28.00;87.10
25138;DHT22;13112;50.986;4.354;2022-09-01T08:23:38;29.20;84.20
25138;DHT22;13112;50.986;4.354;2022-09-01T08:26:06;30.60;83.50
25138;DHT22;13112;50.986;4.354;2022-09-01T08:28:33;30.30;82.30
25138;DHT22;13112;50.986;4.354;2022-09-01T08:30:59;30.70;80.40
25138;DHT22;13112;50.986;4.354;2022-09-01T08:33:25;31.30;79.10
25138;DHT22;13112;50.986;4.354;2022-09-01T08:35:51;31.20;78.80
25138;DHT22;13112;50.986;4.354;2022-09-01T08:38:17;31.70;77.80
25138;DHT22;13112;50.986;4.354;2022-09-01T08:40:51;30.90;78.30
25138;DHT22;13112;50.986;4.354;2022-09-01T08:43:52;29.50;79.60
25138;DHT22;13112;50.986;4.354;2022-09-01T08:46:25;30.30;80.60
25138;DHT22;13112;50.986;4.354;2022-09-01T08:48:54;31.60;77.60
25138;DHT22;13112;50.986;4.354;2022-09-01T08:51:28;32.60;75.40
25138;DHT22;13112;50.986;4.354;2022-09-01T08:56:31;33.00;72.90
25138;DHT22;13112;50.986;4.354;2022-09-01T08:59:02;31.90;75.10
25138;DHT22;13112;50.986;4.354;2022-09-01T09:04:57;30.70;76.30
25138;DHT22;13112;50.986;4.354;2022-09-01T09:11:03;30.30;77.10
25138;DHT22;13112;50.986;4.354;2022-09-01T09:15:55;30.00;77.60
25138;DHT22;13112;50.986;4.354;2022-09-01T09:21:21;29.90;78.40
25138;DHT22;13112;50.986;4.354;2022-09-01T09:23:55;31.10;77.10
25138;DHT22;13112;50.986;4.354;2022-09-01T09:26:23;31.40;75.90
25138;DHT22;13112;50.986;4.354;2022-09-01T09:28:48;31.90;75.40
25138;DHT22;13112;50.986;4.354;2022-09-01T09:33:50;36.00;69.30
25138;DHT22;13112;50.986;4.354;2022-09-01T09:36:22;35.70;66.30
25138;DHT22;13112;50.986;4.354;2022-09-01T09:39:12;34.90;67.30
25138;DHT22;13112;50.986;4.354;2022-09-01T09:41:41;33.40;69.10
25138;DHT22;13112;50.986;4.354;2022-09-01T09:44:15;31.60;71.00
25138;DHT22;13112;50.986;4.354;2022-09-01T09:46:44;31.30;72.70
25138;DHT22;13112;50.986;4.354;2022-09-01T09:49:27;30.50;72.90
25138;DHT22;13112;50.986;4.354;2022-09-01T09:51:56;30.80;73.30
25138;DHT22;13112;50.986;4.354;2022-09-01T09:54:33;32.20;71.60
25138;DHT22;13112;50.986;4.354;2022-09-01T10:00:07;33.20;69.50
25138;DHT22;13112;50.986;4.354;2022-09-01T10:03:00;33.60;67.60
25138;DHT22;13112;50.986;4.354;2022-09-01T10:08:11;34.70;65.10
25138;DHT22;13112;50.986;4.354;2022-09-01T10:10:47;34.20;65.30
25138;DHT22;13112;50.986;4.354;2022-09-01T10:13:18;33.90;65.50
25138;DHT22;13112;50.986;4.354;2022-09-01T10:15:53;33.80;65.30
25138;DHT22;13112;50.986;4.354;2022-09-01T10:18:21;34.30;66.00
25138;DHT22;13112;50.986;4.354;2022-09-01T10:23:32;37.60;60.20
25138;DHT22;13112;50.986;4.354;2022-09-01T10:26:15;37.80;58.30
25138;DHT22;13112;50.986;4.354;2022-09-01T10:31:31;37.30;58.00
25138;DHT22;13112;50.986;4.354;2022-09-01T10:33:57;38.10;56.30
25138;DHT22;13112;50.986;4.354;2022-09-01T10:36:25;38.40;56.10
25138;DHT22;13112;50.986;4.354;2022-09-01T10:38:51;38.60;55.40
25138;DHT22;13112;50.986;4.354;2022-09-01T10:44:21;38.50;54.10
25138;DHT22;13112;50.986;4.354;2022-09-01T10:46:49;39.00;54.70
25138;DHT22;13112;50.986;4.354;2022-09-01T10:51:53;37.90;53.00
25138;DHT22;13112;50.986;4.354;2022-09-01T10:54:50;36.80;54.10
25138;DHT22;13112;50.986;4.354;2022-09-01T10:59:43;36.60;54.00
25138;DHT22;13112;50.986;4.354;2022-09-01T11:02:18;36.50;53.40
25138;DHT22;13112;50.986;4.354;2022-09-01T11:09:45;35.00;54.80
25138;DHT22;13112;50.986;4.354;2022-09-01T11:20:33;35.00;54.20
25138;DHT22;13112;50.986;4.354;2022-09-01T11:30:55;36.20;52.60
25138;DHT22;13112;50.986;4.354;2022-09-01T11:36:33;36.30;52.70
25138;DHT22;13112;50.986;4.354;2022-09-01T11:39:30;35.40;52.80
25138;DHT22;13112;50.986;4.354;2022-09-01T11:41:57;35.90;52.50
25138;DHT22;13112;50.986;4.354;2022-09-01T11:47:14;38.00;50.50
25138;DHT22;13112;50.986;4.354;2022-09-01T11:50:00;36.10;51.20
25138;DHT22;13112;50.986;4.354;2022-09-01T11:52:33;36.20;52.20
25138;DHT22;13112;50.986;4.354;2022-09-01T11:55:01;36.80;51.40
25138;DHT22;13112;50.986;4.354;2022-09-01T11:57:38;38.40;50.30
25138;DHT22;13112;50.986;4.354;2022-09-01T12:00:08;39.40;49.70
25138;DHT22;13112;50.986;4.354;2022-09-01T12:02:41;39.20;48.10
25138;DHT22;13112;50.986;4.354;2022-09-01T12:05:29;38.60;49.00
25138;DHT22;13112;50.986;4.354;2022-09-01T12:07:55;38.40;48.10
25138;DHT22;13112;50.986;4.354;2022-09-01T12:10:37;37.90;48.50
25138;DHT22;13112;50.986;4.354;2022-09-01T12:13:10;37.90;48.90
25138;DHT22;13112;50.986;4.354;2022-09-01T12:15:38;37.80;48.70
25138;DHT22;13112;50.986;4.354;2022-09-01T12:18:19;37.10;49.90
25138;DHT22;13112;50.986;4.354;2022-09-01T12:20:51;37.30;49.70
25138;DHT22;13112;50.986;4.354;2022-09-01T12:23:39;36.90;50.10
25138;DHT22;13112;50.986;4.354;2022-09-01T12:26:14;38.40;48.70
25138;DHT22;13112;50.986;4.354;2022-09-01T12:28:41;38.90;47.70
25138;DHT22;13112;50.986;4.354;2022-09-01T12:31:13;37.80;48.70
25138;DHT22;13112;50.986;4.354;2022-09-01T12:33:42;38.20;48.00
25138;DHT22;13112;50.986;4.354;2022-09-01T12:36:33;37.50;47.90
25138;DHT22;13112;50.986;4.354;2022-09-01T12:39:22;38.80;47.30
25138;DHT22;13112;50.986;4.354;2022-09-01T12:42:05;37.90;47.80
25138;DHT22;13112;50.986;4.354;2022-09-01T12:47:09;36.30;49.60
25138;DHT22;13112;50.986;4.354;2022-09-01T12:49:39;36.70;49.70
25138;DHT22;13112;50.986;4.354;2022-09-01T12:52:25;36.80;48.90
25138;DHT22;13112;50.986;4.354;2022-09-01T12:55:11;36.30;50.50
25138;DHT22;13112;50.986;4.354;2022-09-01T12:57:45;37.10;48.80
25138;DHT22;13112;50.986;4.354;2022-09-01T13:00:23;38.50;47.50
25138;DHT22;13112;50.986;4.354;2022-09-01T13:08:02;39.20;46.50
25138;DHT22;13112;50.986;4.354;2022-09-01T13:13:19;38.90;46.60
25138;DHT22;13112;50.986;4.354;2022-09-01T13:15:50;35.90;48.70
25138;DHT22;13112;50.986;4.354;2022-09-01T13:18:18;34.30;51.00
25138;DHT22;13112;50.986;4.354;2022-09-01T13:20:44;34.60;50.60
25138;DHT22;13112;50.986;4.354;2022-09-01T13:23:10;35.00;49.80
25138;DHT22;13112;50.986;4.354;2022-09-01T13:25:37;35.50;49.40
25138;DHT22;13112;50.986;4.354;2022-09-01T13:28:05;35.00;49.70
25138;DHT22;13112;50.986;4.354;2022-09-01T13:30:32;35.80;49.70
25138;DHT22;13112;50.986;4.354;2022-09-01T13:32:59;36.60;48.90
25138;DHT22;13112;50.986;4.354;2022-09-01T13:35:25;37.10;48.20
25138;DHT22;13112;50.986;4.354;2022-09-01T13:37:51;36.50;48.40
25138;DHT22;13112;50.986;4.354;2022-09-01T13:40:18;36.60;49.10
25138;DHT22;13112;50.986;4.354;2022-09-01T13:42:46;37.40;47.40
25138;DHT22;13112;50.986;4.354;2022-09-01T13:45:13;37.80;46.50
25138;DHT22;13112;50.986;4.354;2022-09-01T13:47:42;38.10;46.80
25138;DHT22;13112;50.986;4.354;2022-09-01T13:50:10;37.50;47.20
25138;DHT22;13112;50.986;4.354;2022-09-01T13:52:39;37.60;47.00
25138;DHT22;13112;50.986;4.354;2022-09-01T13:55:06;37.50;47.80
25138;DHT22;13112;50.986;4.354;2022-09-01T13:57:32;37.70;47.80
25138;DHT22;13112;50.986;4.354;2022-09-01T13:59:58;38.00;46.40
25138;DHT22;13112;50.986;4.354;2022-09-01T14:02:24;38.10;46.30
25138;DHT22;13112;50.986;4.354;2022-09-01T14:04:51;37.40;46.60
25138;DHT22;13112;50.986;4.354;2022-09-01T14:07:16;36.10;47.90
25138;DHT22;13112;50.986;4.354;2022-09-01T14:09:44;35.00;48.70
25138;DHT22;13112;50.986;4.354;2022-09-01T14:12:10;34.00;50.10
25138;DHT22;13112;50.986;4.354;2022-09-01T14:14:35;33.70;49.90
25138;DHT22;13112;50.986;4.354;2022-09-01T14:17:01;33.70;50.40
25138;DHT22;13112;50.986;4.354;2022-09-01T14:19:28;35.10;49.30
25138;DHT22;13112;50.986;4.354;2022-09-01T14:21:55;36.80;47.40
25138;DHT22;13112;50.986;4.354;2022-09-01T14:24:22;37.10;46.80
25138;DHT22;13112;50.986;4.354;2022-09-01T14:26:48;36.60;47.10
25138;DHT22;13112;50.986;4.354;2022-09-01T14:29:15;35.70;47.60
25138;DHT22;13112;50.986;4.354;2022-09-01T14:31:41;35.10;48.70
25138;DHT22;13112;50.986;4.354;2022-09-01T14:34:08;34.80;48.00
25138;DHT22;13112;50.986;4.354;2022-09-01T14:36:36;33.00;49.80
25138;DHT22;13112;50.986;4.354;2022-09-01T14:39:03;31.90;51.20
25138;DHT22;13112;50.986;4.354;2022-09-01T14:41:29;31.40;52.20
25138;DHT22;13112;50.986;4.354;2022-09-01T14:43:56;31.20;52.40
25138;DHT22;13112;50.986;4.354;2022-09-01T14:46:27;30.60;52.40
25138;DHT22;13112;50.986;4.354;2022-09-01T14:48:55;30.20;54.00
25138;DHT22;13112;50.986;4.354;2022-09-01T14:51:25;29.60;55.00
25138;DHT22;13112;50.986;4.354;2022-09-01T14:53:51;28.90;55.00
25138;DHT22;13112;50.986;4.354;2022-09-01T14:56:17;29.00;55.30
25138;DHT22;13112;50.986;4.354;2022-09-01T14:58:47;29.10;55.50
25138;DHT22;13112;50.986;4.354;2022-09-01T15:01:15;28.50;55.70
25138;DHT22;13112;50.986;4.354;2022-09-01T15:03:42;28.40;56.10
25138;DHT22;13112;50.986;4.354;2022-09-01T15:06:15;28.10;56.60
25138;DHT22;13112;50.986;4.354;2022-09-01T15:08:41;28.30;56.50
25138;DHT22;13112;50.986;4.354;2022-09-01T15:11:09;28.20;57.20
25138;DHT22;13112;50.986;4.354;2022-09-01T15:13:35;28.30;56.60
25138;DHT22;13112;50.986;4.354;2022-09-01T15:16:02;28.30;55.80
25138;DHT22;13112;50.986;4.354;2022-09-01T15:18:28;28.50;56.10
25138;DHT22;13112;50.986;4.354;2022-09-01T15:20:54;28.60;55.20
25138;DHT22;13112;50.986;4.354;2022-09-01T15:23:22;28.40;55.70
25138;DHT22;13112;50.986;4.354;2022-09-01T15:25:50;28.10;56.00
25138;DHT22;13112;50.986;4.354;2022-09-01T15:28:16;27.90;56.40
25138;DHT22;13112;50.986;4.354;2022-09-01T15:30:42;27.90;56.30
25138;DHT22;13112;50.986;4.354;2022-09-01T15:33:09;27.90;55.80
25138;DHT22;13112;50.986;4.354;2022-09-01T15:35:35;27.90;56.10
25138;DHT22;13112;50.986;4.354;2022-09-01T15:38:00;27.90;55.60
25138;DHT22;13112;50.986;4.354;2022-09-01T15:40:27;27.60;56.20
25138;DHT22;13112;50.986;4.354;2022-09-01T15:42:54;27.40;55.40
25138;DHT22;13112;50.986;4.354;2022-09-01T15:45:22;27.30;55.80
25138;DHT22;13112;50.986;4.354;2022-09-01T15:47:48;27.30;55.40
25138;DHT22;13112;50.986;4.354;2022-09-01T15:50:18;27.20;55.80
25138;DHT22;13112;50.986;4.354;2022-09-01T15:52:55;27.10;57.20
25138;DHT22;13112;50.986;4.354;2022-09-01T15:55:42;27.10;56.60
25138;DHT22;13112;50.986;4.354;2022-09-01T15:58:10;27.10;56.70
25138;DHT22;13112;50.986;4.354;2022-09-01T16:00:37;27.20;56.30
25138;DHT22;13112;50.986;4.354;2022-09-01T16:03:03;27.20;56.30
25138;DHT22;13112;50.986;4.354;2022-09-01T16:05:30;27.30;56.00
25138;DHT22;13112;50.986;4.354;2022-09-01T16:07:57;27.40;56.20
25138;DHT22;13112;50.986;4.354;2022-09-01T16:10:23;27.30;56.80
25138;DHT22;13112;50.986;4.354;2022-09-01T16:12:49;27.30;56.90
25138;DHT22;13112;50.986;4.354;2022-09-01T16:15:18;27.40;56.90
25138;DHT22;13112;50.986;4.354;2022-09-01T16:20:40;27.50;56.80
25138;DHT22;13112;50.986;4.354;2022-09-01T16:23:20;27.40;56.80
25138;DHT22;13112;50.986;4.354;2022-09-01T16:25:46;27.30;56.40
25138;DHT22;13112;50.986;4.354;2022-09-01T16:28:31;27.20;56.70
25138;DHT22;13112;50.986;4.354;2022-09-01T16:33:33;27.10;57.70
25138;DHT22;13112;50.986;4.354;2022-09-01T16:39:05;27.20;56.60
25138;DHT22;13112;50.986;4.354;2022-09-01T16:41:43;27.20;57.10
25138;DHT22;13112;50.986;4.354;2022-09-01T16:50:00;26.80;57.30
25138;DHT22;13112;50.986;4.354;2022-09-01T16:52:33;26.50;57.80
25138;DHT22;13112;50.986;4.354;2022-09-01T16:55:22;26.50;57.60
25138;DHT22;13112;50.986;4.354;2022-09-01T17:00:43;26.70;57.80
25138;DHT22;13112;50.986;4.354;2022-09-01T17:03:23;26.70;57.70
25138;DHT22;13112;50.986;4.354;2022-09-01T17:05:59;26.50;58.00
25138;DHT22;13112;50.986;4.354;2022-09-01T17:08:32;26.50;58.10
25138;DHT22;13112;50.986;4.354;2022-09-01T17:11:09;26.50;57.90
25138;DHT22;13112;50.986;4.354;2022-09-01T17:13:47;26.30;57.60
25138;DHT22;13112;50.986;4.354;2022-09-01T17:18:56;26.40;57.90
25138;DHT22;13112;50.986;4.354;2022-09-01T17:21:41;26.40;58.30
25138;DHT22;13112;50.986;4.354;2022-09-01T17:27:04;26.20;58.50
25138;DHT22;13112;50.986;4.354;2022-09-01T17:29:52;26.10;58.90